Time;durP1;ratioP1;P1;durP2;ratioP2;P2;SDS_P1;SDS_P2;PMS_P1;PMS_P2;Temp;Humidity;BMP_temperature;BMP_pressure;BME280_temperature;BME280_humidity;BME280_pressure;Samples;Min_cycle;Max_cycle;Signal;HPM_P1;HPM_P2
2022/03/10 00:00:10;;;;;;;16.10;9.55;;;0.70;97.30;;;;;;5052079;28;20123;-89
2022/03/10 00:02:36;;;;;;;14.13;8.60;;;0.70;98.10;;;;;;5051354;28;20052;-90
2022/03/10 00:05:03;;;;;;;18.92;9.52;;;1.30;97.60;;;;;;5051352;28;20947;-90
2022/03/10 00:07:28;;;;;;;15.20;8.88;;;1.90;98.00;;;;;;5019807;28;20443;-90
2022/03/10 00:09:54;;;;;;;15.80;8.60;;;0.60;97.70;;;;;;5034217;28;20041;-90
2022/03/10 00:12:20;;;;;;;12.65;8.88;;;1.40;98.10;;;;;;5035760;28;20139;-90
2022/03/10 00:14:46;;;;;;;16.27;8.38;;;0.50;97.50;;;;;;5017415;28;20112;-89
2022/03/10 00:17:12;;;;;;;16.48;8.27;;;0.40;97.50;;;;;;5034961;28;20106;-89
2022/03/10 00:19:37;;;;;;;19.70;9.57;;;0.40;97.60;;;;;;5034656;28;20131;-90
2022/03/10 00:22:03;;;;;;;18.58;9.25;;;0.40;97.70;;;;;;5034143;28;20052;-90
2022/03/10 00:24:29;;;;;;;16.13;9.10;;;0.40;98.00;;;;;;5035065;28;20040;-90
2022/03/10 00:26:55;;;;;;;21.65;9.98;;;0.40;98.40;;;;;;5034160;28;20037;-89
2022/03/10 00:29:21;;;;;;;15.18;9.38;;;0.40;98.50;;;;;;5018819;28;20475;-89
2022/03/10 00:31:47;;;;;;;15.68;8.48;;;1.90;99.30;;;;;;5034128;28;20040;-90
2022/03/10 00:34:13;;;;;;;16.45;8.57;;;0.30;98.80;;;;;;5051742;28;20051;-89
2022/03/10 00:36:39;;;;;;;16.05;9.23;;;0.40;99.00;;;;;;5034081;28;20055;-90
2022/03/10 00:39:05;;;;;;;13.90;9.43;;;0.30;98.80;;;;;;5033802;28;20045;-89
2022/03/10 00:41:31;;;;;;;29.42;9.45;;;1.00;98.90;;;;;;5018422;28;20052;-89
2022/03/10 00:43:56;;;;;;;15.95;8.23;;;0.20;98.90;;;;;;5033449;28;20044;-90
2022/03/10 00:46:22;;;;;;;16.52;9.20;;;1.50;99.40;;;;;;5018724;28;20128;-89
2022/03/10 00:48:48;;;;;;;17.35;9.35;;;0.20;99.40;;;;;;5033528;28;20503;-90
2022/03/10 00:51:14;;;;;;;21.98;9.30;;;1.50;99.90;;;;;;5035187;28;20102;-89
2022/03/10 00:53:40;;;;;;;13.48;9.05;;;0.00;99.80;;;;;;5017080;28;20475;-90
2022/03/10 00:56:06;;;;;;;17.10;9.00;;;0.10;99.90;;;;;;5050846;28;20427;-90
2022/03/10 00:58:32;;;;;;;13.57;8.85;;;0.10;99.90;;;;;;5017933;28;20070;-89
2022/03/10 01:00:58;;;;;;;24.90;9.63;;;0.00;99.90;;;;;;5032280;28;20085;-91
2022/03/10 01:03:24;;;;;;;14.95;8.57;;;0.00;99.90;;;;;;5018524;28;20044;-91
2022/03/10 01:05:50;;;;;;;22.35;9.80;;;0.00;99.90;;;;;;5033678;28;20131;-91
2022/03/10 01:08:15;;;;;;;21.10;9.50;;;-0.10;99.90;;;;;;5034963;28;20041;-90
2022/03/10 01:10:42;;;;;;;16.55;8.77;;;0.00;99.90;;;;;;5033337;28;20449;-89
2022/03/10 01:13:18;;;;;;;16.50;8.48;;;1.50;99.90;;;;;;5033480;28;20063;-89
2022/03/10 01:15:47;;;;;;;17.73;9.25;;;-0.10;99.90;;;;;;5050731;28;20052;-90
2022/03/10 01:18:14;;;;;;;18.92;9.65;;;-0.10;99.90;;;;;;5049447;28;20040;-89
2022/03/10 01:20:40;;;;;;;25.55;9.55;;;-0.20;99.90;;;;;;5033980;28;20139;-90
2022/03/10 01:23:06;;;;;;;17.25;9.10;;;0.50;99.90;;;;;;5066380;28;20051;-90
2022/03/10 01:25:32;;;;;;;17.25;9.77;;;-0.10;99.90;;;;;;5034406;28;20139;-90
2022/03/10 01:27:57;;;;;;;17.15;9.20;;;-0.10;99.90;;;;;;5033098;28;20484;-89
2022/03/10 01:30:23;;;;;;;16.73;8.80;;;-0.20;99.90;;;;;;5017105;28;20093;-89
2022/03/10 01:32:49;;;;;;;16.50;8.90;;;-0.10;99.90;;;;;;5033746;28;20480;-90
2022/03/10 01:35:16;;;;;;;17.35;8.75;;;-0.20;99.90;;;;;;5049385;28;20036;-91
2022/03/10 01:37:42;;;;;;;17.48;8.48;;;-0.10;99.90;;;;;;5050418;28;20074;-90
2022/03/10 01:40:13;;;;;;;18.27;7.97;;;-0.10;99.90;;;;;;5032253;28;20133;-89
2022/03/10 01:42:39;;;;;;;18.25;8.07;;;-0.20;99.90;;;;;;5033579;28;20055;-90
2022/03/10 01:45:06;;;;;;;17.25;8.70;;;-0.20;99.90;;;;;;5032763;28;20040;-89
2022/03/10 01:47:33;;;;;;;13.52;7.53;;;-0.20;99.90;;;;;;5049104;28;20492;-89
2022/03/10 01:50:00;;;;;;;16.60;8.27;;;-0.40;99.90;;;;;;5049953;28;20041;-89
2022/03/10 01:52:26;;;;;;;18.08;9.00;;;-0.30;99.90;;;;;;5032147;28;20044;-88
2022/03/10 01:54:51;;;;;;;16.08;8.73;;;-0.30;99.90;;;;;;5033636;28;20043;-88
2022/03/10 01:57:17;;;;;;;17.55;8.57;;;0.60;99.90;;;;;;5048996;28;20079;-89
2022/03/10 01:59:43;;;;;;;17.88;8.63;;;1.10;99.90;;;;;;5017033;28;20040;-89
2022/03/10 02:02:10;;;;;;;16.55;8.40;;;-0.40;99.90;;;;;;5032804;28;20112;-88
2022/03/10 02:04:35;;;;;;;16.27;9.05;;;-0.40;99.90;;;;;;5032736;28;20068;-88
2022/03/10 02:07:05;;;;;;;17.88;8.25;;;-0.30;99.90;;;;;;5066424;28;20099;-90
2022/03/10 02:12:17;;;;;;;14.60;8.45;;;-0.30;99.90;;;;;;5052532;28;20412;-89
2022/03/10 02:17:28;;;;;;;13.90;8.18;;;-0.40;99.90;;;;;;5053491;28;20076;-89
2022/03/10 02:19:56;;;;;;;15.88;8.30;;;-0.40;99.90;;;;;;5052422;28;20135;-89
2022/03/10 02:22:23;;;;;;;17.98;8.30;;;-0.30;99.90;;;;;;5064670;28;20037;-90
2022/03/10 02:24:49;;;;;;;15.05;8.65;;;0.80;99.90;;;;;;5049821;28;20365;-90
2022/03/10 02:27:23;;;;;;;14.23;8.50;;;-0.30;99.90;;;;;;5042671;28;20464;-89
2022/03/10 02:29:55;;;;;;;12.52;7.93;;;-0.20;99.90;;;;;;5049812;28;20097;-90
2022/03/10 02:32:21;;;;;;;16.95;8.32;;;-0.20;99.90;;;;;;5049776;28;20131;-89
2022/03/10 02:34:48;;;;;;;14.45;8.48;;;-0.10;99.90;;;;;;5048335;28;20041;-88
2022/03/10 02:37:14;;;;;;;18.23;9.10;;;0.80;99.90;;;;;;5049356;28;20037;-89
2022/03/10 02:39:41;;;;;;;17.73;8.73;;;0.00;99.90;;;;;;5031225;28;20044;-88
2022/03/10 02:42:08;;;;;;;15.18;9.23;;;0.10;99.90;;;;;;5016492;28;20226;-88
2022/03/10 02:44:46;;;;;;;13.98;8.77;;;0.20;99.90;;;;;;5031367;28;20037;-89
2022/03/10 02:47:12;;;;;;;13.10;7.75;;;0.20;99.90;;;;;;5048399;28;20045;-89
2022/03/10 02:49:39;;;;;;;13.23;7.80;;;1.40;99.90;;;;;;5048794;28;20056;-89
2022/03/10 02:52:05;;;;;;;15.40;7.82;;;0.00;99.90;;;;;;5047633;28;20052;-89
2022/03/10 02:54:31;;;;;;;12.48;7.20;;;0.20;99.90;;;;;;5032694;28;20040;-90
2022/03/10 02:56:58;;;;;;;17.02;8.45;;;0.00;99.90;;;;;;5031105;28;20392;-89
2022/03/10 02:59:24;;;;;;;13.75;8.25;;;1.40;99.90;;;;;;5049176;28;20396;-89
2022/03/10 03:01:49;;;;;;;17.88;9.05;;;0.10;99.90;;;;;;5014740;28;20050;-90
2022/03/10 03:04:16;;;;;;;13.88;8.52;;;0.00;99.90;;;;;;5015663;28;20105;-89
2022/03/10 03:06:41;;;;;;;13.60;8.27;;;0.10;99.90;;;;;;5048155;28;20079;-89
2022/03/10 03:09:07;;;;;;;14.90;7.85;;;0.20;99.90;;;;;;5047187;28;20076;-90
2022/03/10 03:11:33;;;;;;;16.05;9.45;;;0.20;99.90;;;;;;5032233;28;20048;-90
2022/03/10 03:13:59;;;;;;;15.30;8.52;;;1.70;99.90;;;;;;5030843;28;20045;-90
2022/03/10 03:16:26;;;;;;;15.63;8.35;;;0.30;99.90;;;;;;5048845;28;20045;-90
2022/03/10 03:18:52;;;;;;;20.35;8.75;;;0.30;99.90;;;;;;5047712;28;20079;-90
2022/03/10 03:21:19;;;;;;;14.82;8.65;;;0.20;99.90;;;;;;5031596;28;20052;-90
2022/03/10 03:23:45;;;;;;;16.55;7.63;;;0.30;99.90;;;;;;5048078;28;20090;-90
2022/03/10 03:26:10;;;;;;;20.38;9.82;;;0.20;99.90;;;;;;5031094;28;20781;-90
2022/03/10 03:28:36;;;;;;;15.80;8.88;;;0.30;99.90;;;;;;5049050;28;20076;-90
2022/03/10 03:31:03;;;;;;;14.57;9.10;;;1.60;99.90;;;;;;5047288;28;20404;-90
2022/03/10 03:33:30;;;;;;;22.13;8.73;;;0.20;99.90;;;;;;5048742;28;20079;-89
2022/03/10 03:35:57;;;;;;;17.60;7.88;;;0.60;99.90;;;;;;5047281;28;20475;-89
2022/03/10 03:38:23;;;;;;;13.32;7.55;;;1.50;99.90;;;;;;5031428;28;20049;-90
2022/03/10 03:40:49;;;;;;;14.68;7.55;;;0.20;99.90;;;;;;5048096;28;20037;-88
2022/03/10 03:43:15;;;;;;;16.02;8.50;;;1.70;99.90;;;;;;5047085;28;20040;-89
2022/03/10 03:45:41;;;;;;;16.77;8.65;;;1.40;99.90;;;;;;5049037;28;20044;-89
2022/03/10 03:48:06;;;;;;;17.92;9.02;;;1.70;99.90;;;;;;5030186;28;20047;-88
2022/03/10 03:50:32;;;;;;;15.90;8.60;;;0.10;99.90;;;;;;5032255;28;20044;-90
2022/03/10 03:52:58;;;;;;;17.77;8.80;;;0.10;99.90;;;;;;5014021;28;20048;-90
2022/03/10 03:55:24;;;;;;;17.58;8.50;;;0.10;99.90;;;;;;5047677;28;20047;-88
2022/03/10 03:57:49;;;;;;;14.82;8.23;;;0.10;99.90;;;;;;5031303;28;20482;-89
2022/03/10 04:00:15;;;;;;;16.40;8.05;;;0.00;99.90;;;;;;5047449;28;20032;-89
2022/03/10 04:02:42;;;;;;;17.05;8.05;;;0.00;99.90;;;;;;5031599;28;20128;-89
2022/03/10 04:05:08;;;;;;;20.40;9.13;;;0.00;99.90;;;;;;5030712;28;20446;-89
2022/03/10 04:07:35;;;;;;;15.65;8.48;;;-0.10;99.90;;;;;;5032036;28;20503;-88
2022/03/10 04:10:01;;;;;;;15.27;9.07;;;1.20;99.90;;;;;;5047226;28;20048;-89
2022/03/10 04:12:27;;;;;;;18.48;9.13;;;0.00;99.90;;;;;;5031590;28;20125;-89
2022/03/10 04:14:52;;;;;;;14.02;8.10;;;1.30;99.90;;;;;;5047479;28;20045;-89
2022/03/10 04:17:18;;;;;;;13.38;7.78;;;-0.10;99.90;;;;;;5030589;28;20445;-89
2022/03/10 04:19:44;;;;;;;14.35;8.57;;;0.10;99.90;;;;;;5031313;28;20044;-88
2022/03/10 04:22:10;;;;;;;15.55;8.73;;;0.00;99.90;;;;;;5013983;28;20134;-89
2022/03/10 04:24:35;;;;;;;15.30;8.07;;;1.50;99.90;;;;;;5031667;28;20041;-89
2022/03/10 04:27:01;;;;;;;15.27;8.10;;;0.10;99.90;;;;;;5030222;28;20123;-89
2022/03/10 04:29:27;;;;;;;13.60;8.07;;;0.10;99.90;;;;;;5048515;28;20045;-89
2022/03/10 04:31:53;;;;;;;18.20;8.98;;;1.30;99.90;;;;;;5014540;28;20480;-90
2022/03/10 04:34:18;;;;;;;15.93;9.07;;;1.10;99.90;;;;;;5047537;28;20041;-89
2022/03/10 04:36:45;;;;;;;16.02;8.88;;;0.00;99.90;;;;;;5033838;28;20099;-89
2022/03/10 04:39:10;;;;;;;12.38;8.05;;;0.80;99.90;;;;;;5018279;28;20500;-88
2022/03/10 04:41:36;;;;;;;15.23;8.63;;;0.00;99.90;;;;;;5035544;28;20083;-88
2022/03/10 04:44:02;;;;;;;13.52;7.68;;;-0.10;99.90;;;;;;5017175;28;20076;-85
2022/03/10 04:46:28;;;;;;;14.10;7.97;;;0.10;99.90;;;;;;5051756;28;20079;-86
2022/03/10 04:48:54;;;;;;;15.25;8.05;;;0.00;99.90;;;;;;5021241;28;20037;-87
2022/03/10 04:51:20;;;;;;;18.35;8.63;;;1.30;99.90;;;;;;5066988;28;20051;-89
2022/03/10 04:53:46;;;;;;;17.25;8.35;;;0.10;99.90;;;;;;5030939;28;20398;-92
2022/03/10 04:56:13;;;;;;;15.05;8.45;;;0.10;99.90;;;;;;5018059;28;20049;-88
2022/03/10 04:58:39;;;;;;;15.13;8.18;;;-0.10;99.90;;;;;;5051327;28;20086;-88
2022/03/10 05:01:05;;;;;;;13.95;8.52;;;0.10;99.90;;;;;;5049936;28;20036;-88
2022/03/10 05:03:32;;;;;;;11.40;7.22;;;0.10;99.90;;;;;;5050903;28;20037;-87
2022/03/10 05:05:58;;;;;;;15.77;8.13;;;0.10;99.90;;;;;;5050040;28;20135;-88
2022/03/10 05:08:24;;;;;;;20.92;8.02;;;0.00;99.90;;;;;;5033460;28;20051;-86
2022/03/10 05:10:50;;;;;;;17.17;8.18;;;1.50;99.90;;;;;;5050069;28;20040;-85
2022/03/10 05:13:15;;;;;;;16.08;8.68;;;0.10;99.90;;;;;;5049053;28;20038;-88
2022/03/10 05:15:41;;;;;;;15.55;7.68;;;0.10;99.90;;;;;;5034407;28;20055;-87
2022/03/10 05:18:07;;;;;;;17.05;8.43;;;0.10;99.90;;;;;;5032902;28;20084;-87
2022/03/10 05:20:32;;;;;;;15.00;8.32;;;1.50;99.90;;;;;;5051259;28;20041;-92
2022/03/10 05:23:00;;;;;;;13.70;7.97;;;0.10;99.90;;;;;;5033882;28;20048;-92
2022/03/10 05:25:33;;;;;;;13.07;7.55;;;1.00;99.90;;;;;;5050440;28;20040;-90
2022/03/10 05:27:59;;;;;;;13.43;7.30;;;1.40;99.90;;;;;;5050566;28;20098;-87
2022/03/10 05:30:25;;;;;;;15.82;7.50;;;1.60;99.90;;;;;;5032976;28;20044;-89
2022/03/10 05:32:54;;;;;;;17.90;7.97;;;0.10;99.90;;;;;;5050750;28;20521;-90
2022/03/10 05:35:20;;;;;;;14.50;8.32;;;0.20;99.90;;;;;;5065972;28;20074;-89
2022/03/10 05:37:48;;;;;;;15.85;8.70;;;0.10;99.90;;;;;;5034109;28;20604;-90
2022/03/10 05:40:21;;;;;;;12.57;7.47;;;0.00;99.90;;;;;;5049888;28;20062;-89
2022/03/10 05:42:48;;;;;;;13.48;6.63;;;0.00;99.90;;;;;;5065918;28;20041;-89
2022/03/10 05:45:14;;;;;;;15.77;8.77;;;1.60;99.90;;;;;;5033553;28;20154;-89
2022/03/10 05:47:41;;;;;;;18.00;9.35;;;1.30;99.90;;;;;;5032160;28;20045;-81
2022/03/10 05:50:08;;;;;;;11.38;7.07;;;0.30;99.90;;;;;;5069345;28;20056;-82
2022/03/10 05:52:35;;;;;;;14.65;8.10;;;0.30;99.90;;;;;;5068006;28;20106;-78
2022/03/10 05:55:02;;;;;;;11.40;6.85;;;1.90;99.90;;;;;;5068732;28;20338;-80
2022/03/10 05:57:28;;;;;;;14.63;8.05;;;0.30;99.90;;;;;;5067908;28;20048;-80
2022/03/10 05:59:53;;;;;;;16.30;8.30;;;0.30;99.90;;;;;;5066724;28;20444;-79
2022/03/10 06:02:19;;;;;;;14.63;8.40;;;0.30;99.90;;;;;;5068628;28;20637;-81
2022/03/10 06:04:45;;;;;;;19.13;8.77;;;0.30;99.90;;;;;;5067564;28;20131;-80
2022/03/10 06:07:11;;;;;;;13.18;7.35;;;0.30;99.90;;;;;;5069087;28;20044;-80
2022/03/10 06:09:37;;;;;;;16.83;8.43;;;0.30;99.90;;;;;;5067481;28;20029;-81
2022/03/10 06:12:03;;;;;;;17.33;8.10;;;0.40;99.90;;;;;;5066948;28;20408;-80
2022/03/10 06:14:29;;;;;;;14.48;7.95;;;0.40;99.90;;;;;;5067690;28;20059;-80
2022/03/10 06:16:55;;;;;;;18.73;7.72;;;0.40;99.90;;;;;;5050066;28;20047;-80
2022/03/10 06:19:21;;;;;;;14.88;8.50;;;0.50;99.90;;;;;;5050464;28;20117;-81
2022/03/10 06:21:47;;;;;;;14.98;8.20;;;0.60;99.90;;;;;;5066350;28;20063;-80
2022/03/10 06:24:13;;;;;;;16.88;8.15;;;0.60;99.90;;;;;;5034018;28;20052;-80
2022/03/10 06:26:39;;;;;;;15.95;8.52;;;1.70;99.90;;;;;;5065630;28;20094;-80
2022/03/10 06:29:05;;;;;;;14.05;7.75;;;0.70;99.90;;;;;;5067106;28;20044;-80
2022/03/10 06:31:32;;;;;;;13.50;7.80;;;0.70;99.90;;;;;;5049292;28;20072;-81
2022/03/10 06:33:58;;;;;;;13.55;8.25;;;0.70;99.90;;;;;;5067749;28;20040;-81
2022/03/10 06:36:24;;;;;;;15.70;9.07;;;0.80;99.90;;;;;;5066374;28;20131;-81
2022/03/10 06:38:50;;;;;;;18.42;8.25;;;0.90;99.90;;;;;;5032611;28;20044;-80
2022/03/10 06:41:16;;;;;;;14.05;8.73;;;1.00;99.90;;;;;;5066739;28;20106;-80
2022/03/10 06:43:41;;;;;;;18.80;8.02;;;1.10;99.90;;;;;;5065347;28;20093;-81
2022/03/10 06:46:07;;;;;;;15.23;7.97;;;1.10;99.90;;;;;;5066388;28;20055;-81
2022/03/10 06:48:34;;;;;;;14.68;8.10;;;1.20;99.90;;;;;;5067054;28;20044;-81
2022/03/10 06:51:00;;;;;;;14.40;7.90;;;1.30;99.90;;;;;;5066191;28;20178;-81
2022/03/10 06:53:26;;;;;;;15.80;7.47;;;1.30;99.90;;;;;;5066280;28;20527;-81
2022/03/10 06:55:52;;;;;;;14.88;8.15;;;1.30;99.90;;;;;;5065978;28;20040;-81
2022/03/10 06:58:18;;;;;;;15.38;8.10;;;1.40;99.90;;;;;;5068016;28;20041;-81
2022/03/10 07:00:44;;;;;;;18.38;8.27;;;1.50;99.90;;;;;;5066620;28;20423;-81
2022/03/10 07:03:10;;;;;;;14.45;8.23;;;2.30;99.90;;;;;;5068015;28;20053;-81
2022/03/10 07:05:36;;;;;;;15.85;8.38;;;1.60;99.90;;;;;;5065906;28;20041;-80
2022/03/10 07:08:02;;;;;;;14.20;8.23;;;1.70;99.90;;;;;;5066138;28;20032;-81
2022/03/10 07:10:28;;;;;;;18.08;8.23;;;1.70;99.90;;;;;;5066461;28;20036;-80
2022/03/10 07:12:54;;;;;;;11.65;7.15;;;1.80;99.90;;;;;;5067366;28;20037;-80
2022/03/10 07:15:21;;;;;;;15.10;8.65;;;1.80;99.90;;;;;;5066427;28;20053;-81
2022/03/10 07:17:46;;;;;;;16.83;7.90;;;1.90;99.90;;;;;;5067428;28;20040;-80
2022/03/10 07:20:15;;;;;;;21.50;8.23;;;2.00;99.90;;;;;;5074335;28;20047;-80
2022/03/10 07:22:41;;;;;;;16.75;8.63;;;2.40;99.90;;;;;;5068848;28;20053;-80
2022/03/10 07:25:11;;;;;;;14.98;8.70;;;2.30;99.90;;;;;;5066443;28;20052;-79
2022/03/10 07:27:38;;;;;;;12.68;8.48;;;2.40;99.90;;;;;;5067098;28;20532;-80
2022/03/10 07:30:04;;;;;;;14.50;8.10;;;2.50;99.90;;;;;;5048463;28;20041;-80
2022/03/10 07:32:30;;;;;;;19.10;8.43;;;2.60;99.90;;;;;;5049378;28;20062;-79
2022/03/10 07:34:56;;;;;;;16.05;7.93;;;2.80;99.90;;;;;;5064951;28;20131;-79
2022/03/10 07:37:22;;;;;;;14.77;8.23;;;2.90;99.70;;;;;;5049543;28;20048;-80
2022/03/10 07:39:47;;;;;;;15.38;8.27;;;3.00;99.40;;;;;;5031781;28;20506;-79
2022/03/10 07:42:15;;;;;;;24.30;7.35;;;3.20;99.00;;;;;;5032273;28;20105;-80
2022/03/10 07:44:41;;;;;;;16.77;8.30;;;3.30;98.60;;;;;;5065386;28;20059;-80
2022/03/10 07:47:07;;;;;;;20.10;8.18;;;3.50;98.20;;;;;;5064825;28;20060;-80
2022/03/10 07:49:33;;;;;;;16.17;8.05;;;3.60;98.00;;;;;;5066327;28;20048;-79
2022/03/10 07:52:00;;;;;;;15.93;7.80;;;3.80;97.30;;;;;;5064456;28;20454;-80
2022/03/10 07:54:26;;;;;;;14.75;8.25;;;3.90;96.90;;;;;;5049586;28;20890;-80
2022/03/10 07:56:52;;;;;;;17.77;8.07;;;4.00;96.70;;;;;;5065070;28;20123;-80
2022/03/10 07:59:18;;;;;;;17.20;7.93;;;4.10;95.80;;;;;;5065231;28;20118;-80
2022/03/10 08:01:43;;;;;;;19.00;7.82;;;4.30;95.40;;;;;;5048552;28;20086;-80
2022/03/10 08:04:09;;;;;;;12.63;7.75;;;4.50;94.80;;;;;;5032097;28;20127;-80
2022/03/10 08:06:35;;;;;;;15.77;6.80;;;4.60;94.70;;;;;;5049242;28;20474;-80
2022/03/10 08:09:02;;;;;;;16.50;8.52;;;4.90;94.70;;;;;;5064416;28;20045;-80
2022/03/10 08:11:28;;;;;;;13.57;8.20;;;4.90;94.50;;;;;;5051224;28;20048;-80
2022/03/10 08:13:54;;;;;;;18.35;8.60;;;5.00;93.70;;;;;;5068214;28;20053;-80
2022/03/10 08:16:20;;;;;;;16.88;8.57;;;5.10;92.80;;;;;;5052098;28;20052;-80
2022/03/10 08:18:48;;;;;;;13.30;7.10;;;5.30;92.60;;;;;;5052265;28;20109;-80
2022/03/10 08:21:14;;;;;;;17.63;8.40;;;5.40;92.60;;;;;;5068657;28;20121;-80
2022/03/10 08:23:40;;;;;;;14.07;8.43;;;5.60;91.70;;;;;;5053097;28;20083;-80
2022/03/10 08:26:06;;;;;;;17.70;8.50;;;5.70;91.70;;;;;;5068152;28;20127;-80
2022/03/10 08:28:33;;;;;;;15.48;8.27;;;5.80;91.40;;;;;;5069203;28;20067;-80
2022/03/10 08:30:58;;;;;;;12.82;7.60;;;6.00;91.20;;;;;;5035702;28;20036;-80
2022/03/10 08:33:24;;;;;;;16.63;8.57;;;6.10;90.10;;;;;;5051925;28;20485;-79
2022/03/10 08:35:50;;;;;;;18.48;7.35;;;6.30;89.70;;;;;;5070095;28;20049;-80
2022/03/10 08:38:17;;;;;;;17.02;7.90;;;6.30;87.50;;;;;;5069933;28;20427;-80
2022/03/10 08:40:42;;;;;;;13.73;7.97;;;7.10;87.70;;;;;;5070261;28;20063;-80
2022/03/10 08:43:12;;;;;;;14.23;7.72;;;6.60;85.10;;;;;;5069239;28;20153;-80
2022/03/10 08:45:38;;;;;;;13.77;8.20;;;6.70;84.30;;;;;;5070636;28;20074;-80
2022/03/10 08:48:04;;;;;;;14.70;8.43;;;7.20;83.10;;;;;;5069567;28;20261;-79
2022/03/10 08:50:29;;;;;;;13.18;7.60;;;6.90;81.10;;;;;;5069585;28;20249;-79
2022/03/10 08:52:55;;;;;;;14.43;8.05;;;7.00;78.50;;;;;;5068327;28;20074;-79
2022/03/10 08:55:21;;;;;;;13.63;8.48;;;7.10;77.80;;;;;;5068072;28;20037;-79
2022/03/10 08:57:47;;;;;;;14.95;7.70;;;7.20;76.60;;;;;;5070443;28;20066;-79
2022/03/10 09:00:14;;;;;;;18.73;8.48;;;8.10;76.10;;;;;;5068044;28;20453;-79
2022/03/10 09:02:41;;;;;;;13.65;7.57;;;7.30;74.80;;;;;;5068786;28;20094;-79
2022/03/10 09:05:08;;;;;;;17.88;7.03;;;7.40;75.10;;;;;;5067562;28;20048;-79
2022/03/10 09:07:35;;;;;;;13.68;7.63;;;7.50;74.40;;;;;;5069362;28;20064;-78
2022/03/10 09:10:01;;;;;;;12.77;8.35;;;7.60;74.30;;;;;;5069017;28;20081;-78
2022/03/10 09:12:27;;;;;;;12.70;7.75;;;7.70;73.10;;;;;;5068946;28;20040;-79
2022/03/10 09:14:53;;;;;;;14.13;8.10;;;8.50;73.40;;;;;;5051436;28;20049;-78
2022/03/10 09:17:19;;;;;;;12.55;7.93;;;8.10;73.10;;;;;;5068532;28;20174;-79
2022/03/10 09:19:45;;;;;;;12.88;8.07;;;7.90;72.80;;;;;;5070158;28;20112;-79
2022/03/10 09:22:11;;;;;;;13.23;7.82;;;8.00;71.50;;;;;;5068268;28;20056;-78
2022/03/10 09:24:36;;;;;;;14.45;7.85;;;8.10;71.20;;;;;;5068213;28;20039;-79
2022/03/10 09:27:02;;;;;;;16.58;7.85;;;8.10;70.90;;;;;;5067402;28;20484;-77
2022/03/10 09:29:28;;;;;;;14.10;7.57;;;8.20;70.50;;;;;;5050473;28;20094;-79
2022/03/10 09:31:54;;;;;;;18.65;7.95;;;8.80;71.10;;;;;;5067893;28;20076;-79
2022/03/10 09:34:19;;;;;;;12.82;7.97;;;8.50;69.80;;;;;;5050528;28;20056;-78
2022/03/10 09:36:46;;;;;;;16.10;7.93;;;8.70;69.50;;;;;;5068169;28;20509;-79
2022/03/10 09:39:11;;;;;;;18.73;8.73;;;8.80;69.00;;;;;;5050650;28;20048;-79
2022/03/10 09:41:37;;;;;;;16.85;7.15;;;9.00;68.30;;;;;;5050914;28;20405;-78
2022/03/10 09:44:14;;;;;;;15.30;8.15;;;9.20;68.10;;;;;;5067666;28;20381;-78
2022/03/10 09:46:41;;;;;;;13.05;8.02;;;9.40;67.20;;;;;;5067526;28;20048;-78
2022/03/10 09:49:07;;;;;;;12.95;8.05;;;9.70;65.70;;;;;;5051857;28;20055;-78
2022/03/10 09:51:33;;;;;;;15.55;8.90;;;10.00;64.80;;;;;;5034033;28;20037;-79
2022/03/10 09:53:59;;;;;;;11.55;8.18;;;10.10;64.30;;;;;;5067699;28;20451;-78
2022/03/10 09:56:26;;;;;;;18.33;8.32;;;11.50;64.80;;;;;;5067808;28;20541;-79
2022/03/10 09:58:52;;;;;;;13.23;7.63;;;10.60;64.10;;;;;;5068265;28;20076;-77
2022/03/10 10:01:17;;;;;;;18.58;8.38;;;10.70;63.60;;;;;;5069287;28;20045;-77
2022/03/10 10:03:43;;;;;;;16.92;7.82;;;10.80;62.90;;;;;;5068372;28;20052;-78
2022/03/10 10:06:09;;;;;;;17.48;7.85;;;11.00;62.40;;;;;;5068564;28;20040;-78
2022/03/10 10:08:35;;;;;;;12.68;7.10;;;10.90;61.90;;;;;;5067817;28;20047;-78
2022/03/10 10:11:02;;;;;;;13.15;7.35;;;11.00;61.90;;;;;;5050732;28;20420;-78
2022/03/10 10:13:29;;;;;;;15.77;7.97;;;11.10;61.50;;;;;;5066117;28;20063;-78
2022/03/10 10:16:01;;;;;;;16.08;8.77;;;11.20;60.60;;;;;;5050105;28;20129;-78
2022/03/10 10:18:28;;;;;;;13.63;8.18;;;11.20;59.80;;;;;;5066693;28;20454;-79
2022/03/10 10:20:55;;;;;;;13.00;8.07;;;11.30;59.50;;;;;;5049364;28;20492;-79
2022/03/10 10:23:24;;;;;;;13.65;8.18;;;11.40;59.30;;;;;;5066895;28;20483;-78
2022/03/10 10:25:59;;;;;;;13.52;8.07;;;11.40;58.50;;;;;;5049020;28;20040;-78
2022/03/10 10:28:35;;;;;;;17.95;7.47;;;11.50;57.00;;;;;;5067058;28;20074;-78
2022/03/10 10:31:12;;;;;;;10.02;7.13;;;10.90;57.30;;;;;;5067766;28;20054;-78
2022/03/10 10:33:54;;;;;;;12.63;7.05;;;11.60;57.70;;;;;;5065099;28;20040;-78
2022/03/10 10:36:25;;;;;;;13.13;7.47;;;11.70;57.10;;;;;;5067015;28;20056;-78
2022/03/10 10:38:57;;;;;;;10.50;6.97;;;11.80;56.20;;;;;;5065676;28;20044;-78
2022/03/10 10:41:27;;;;;;;15.23;7.70;;;11.90;55.90;;;;;;5068058;28;20052;-78
2022/03/10 10:43:54;;;;;;;14.45;7.72;;;12.10;55.20;;;;;;5066259;28;20101;-78
2022/03/10 10:46:29;;;;;;;12.68;7.65;;;12.00;55.50;;;;;;5067257;28;20044;-78
2022/03/10 10:48:55;;;;;;;13.70;8.23;;;12.10;54.80;;;;;;5066363;28;20049;-79
2022/03/10 10:51:29;;;;;;;12.23;7.43;;;12.20;55.10;;;;;;5048977;28;20048;-79
2022/03/10 10:53:55;;;;;;;13.95;8.52;;;12.20;54.60;;;;;;5049693;28;20040;-79
2022/03/10 10:56:22;;;;;;;12.45;8.05;;;12.30;54.30;;;;;;5065449;28;20052;-79
2022/03/10 10:58:48;;;;;;;15.63;7.97;;;12.80;54.70;;;;;;5065843;28;20075;-79
2022/03/10 11:01:33;;;;;;;12.25;8.13;;;12.40;54.80;;;;;;5049730;28;20049;-79
2022/03/10 11:04:00;;;;;;;13.40;8.38;;;12.40;53.30;;;;;;5065232;28;20044;-79
2022/03/10 11:06:26;;;;;;;14.18;8.00;;;12.50;54.00;;;;;;5068049;28;20048;-79
2022/03/10 11:08:53;;;;;;;12.65;8.52;;;12.60;54.60;;;;;;5066992;28;20044;-78
2022/03/10 11:11:20;;;;;;;13.48;8.25;;;12.70;54.30;;;;;;5066566;28;20063;-78
2022/03/10 11:13:47;;;;;;;18.58;9.13;;;12.80;53.90;;;;;;5048600;28;20110;-78
2022/03/10 11:16:15;;;;;;;12.90;8.77;;;12.80;53.40;;;;;;5066255;28;20048;-78
2022/03/10 11:18:44;;;;;;;15.55;9.18;;;12.90;53.10;;;;;;5066238;28;20048;-79
2022/03/10 11:21:14;;;;;;;15.75;8.70;;;13.00;52.60;;;;;;5049395;28;20419;-79
2022/03/10 11:23:56;;;;;;;16.33;8.35;;;13.20;52.60;;;;;;5068154;28;20086;-79
2022/03/10 11:26:37;;;;;;;13.50;8.75;;;13.20;51.60;;;;;;5066791;28;20108;-78
2022/03/10 11:29:05;;;;;;;13.57;8.15;;;13.20;50.10;;;;;;5067143;28;20072;-78
2022/03/10 11:31:33;;;;;;;14.30;9.07;;;13.30;51.60;;;;;;5067430;28;20053;-79
2022/03/10 11:33:58;;;;;;;15.73;8.85;;;13.40;50.60;;;;;;5066324;28;20449;-80
2022/03/10 11:36:30;;;;;;;14.60;9.18;;;13.40;50.60;;;;;;5066179;28;20059;-78
2022/03/10 11:38:59;;;;;;;15.07;8.75;;;13.50;50.80;;;;;;5065358;28;20106;-78
2022/03/10 11:41:50;;;;;;;11.35;7.90;;;13.70;50.90;;;;;;5065424;28;20515;-78
2022/03/10 11:44:20;;;;;;;14.02;8.65;;;13.80;48.00;;;;;;5065496;28;20051;-78
2022/03/10 11:46:53;;;;;;;16.08;8.07;;;13.90;49.60;;;;;;5052889;28;20279;-78
2022/03/10 11:49:19;;;;;;;13.02;8.35;;;13.90;49.20;;;;;;5070503;28;20083;-79
2022/03/10 11:52:03;;;;;;;13.70;8.70;;;13.90;48.90;;;;;;5052272;28;20044;-79
2022/03/10 11:54:30;;;;;;;12.20;8.32;;;13.90;49.60;;;;;;5052593;28;20051;-79
2022/03/10 11:57:07;;;;;;;16.08;9.27;;;14.10;50.40;;;;;;5069080;28;20048;-79
2022/03/10 11:59:32;;;;;;;13.70;8.75;;;14.20;48.50;;;;;;5053271;28;20070;-78
2022/03/10 12:01:59;;;;;;;14.75;9.32;;;14.30;49.00;;;;;;5069856;28;20555;-78
2022/03/10 12:04:35;;;;;;;14.00;9.48;;;14.50;48.60;;;;;;5068901;28;20044;-78
2022/03/10 12:07:01;;;;;;;15.90;8.90;;;14.40;48.00;;;;;;5052336;28;20060;-78
2022/03/10 12:09:29;;;;;;;13.15;8.63;;;14.40;48.10;;;;;;5035841;28;20063;-78
2022/03/10 12:12:11;;;;;;;18.95;8.32;;;14.50;47.60;;;;;;5052604;28;20044;-78
2022/03/10 12:14:37;;;;;;;13.98;8.50;;;14.50;46.80;;;;;;5069668;28;20473;-78
2022/03/10 12:17:03;;;;;;;16.02;9.65;;;14.40;46.50;;;;;;5069896;28;20094;-79
2022/03/10 12:20:06;;;;;;;20.13;9.05;;;14.50;46.90;;;;;;5071281;28;20036;-78
2022/03/10 12:22:35;;;;;;;18.02;9.02;;;14.60;45.50;;;;;;5070138;28;20089;-79
2022/03/10 12:25:21;;;;;;;17.02;9.18;;;14.70;47.00;;;;;;5068490;28;20048;-79
2022/03/10 12:27:51;;;;;;;13.10;8.70;;;14.80;45.90;;;;;;5053174;28;20482;-79
2022/03/10 12:30:22;;;;;;;13.52;8.95;;;14.90;47.40;;;;;;5051686;28;20047;-79
2022/03/10 12:32:52;;;;;;;13.90;8.70;;;15.00;46.90;;;;;;5069851;28;20055;-80
2022/03/10 12:35:27;;;;;;;14.48;9.23;;;15.10;46.20;;;;;;5069825;28;20041;-78
2022/03/10 12:37:53;;;;;;;16.13;8.55;;;15.20;45.90;;;;;;5068045;28;20059;-78
2022/03/10 12:40:21;;;;;;;13.25;8.43;;;15.20;46.10;;;;;;5069444;28;20404;-78
2022/03/10 12:42:47;;;;;;;15.18;8.75;;;15.30;46.20;;;;;;5067633;28;20048;-78
2022/03/10 12:45:17;;;;;;;13.98;8.45;;;15.30;45.70;;;;;;5069940;28;20449;-77
2022/03/10 12:47:48;;;;;;;16.08;9.30;;;15.30;45.30;;;;;;5068004;28;20037;-80